createdAt,value
2022-09-07T00:12:17.072Z,16.1
2022-09-07T00:22:17.091Z,16.1
2022-09-07T00:32:17.123Z,16
2022-09-07T00:42:17.134Z,15.9
2022-09-07T00:52:17.084Z,15.9
2022-09-07T01:02:17.109Z,15.9
2022-09-07T01:12:17.191Z,15.9
2022-09-07T01:22:17.188Z,16
2022-09-07T01:32:17.211Z,15.9
2022-09-07T01:42:17.242Z,15.8
2022-09-07T01:52:17.234Z,15.7
2022-09-07T02:02:17.312Z,15.6
2022-09-07T02:12:17.286Z,15.6
2022-09-07T02:22:17.292Z,15.5
2022-09-07T02:32:17.298Z,15.2
2022-09-07T02:42:17.341Z,15
2022-09-07T02:52:17.335Z,15
2022-09-07T03:02:17.444Z,14.9
2022-09-07T03:12:17.374Z,14.8
2022-09-07T03:22:17.398Z,14.9
2022-09-07T03:32:17.413Z,14.9
2022-09-07T03:42:17.440Z,14.9
2022-09-07T03:52:17.441Z,14.9
2022-09-07T04:02:17.539Z,15.1
2022-09-07T04:12:17.319Z,15.1
2022-09-07T04:22:17.503Z,14.8
2022-09-07T04:32:17.507Z,14.8
2022-09-07T04:42:17.509Z,14.7
2022-09-07T04:52:17.546Z,14.8
2022-09-07T05:02:17.620Z,14.6
2022-09-07T05:12:17.585Z,14.6
2022-09-07T05:32:17.613Z,14.9
2022-09-07T05:42:17.634Z,15
2022-09-07T05:52:17.642Z,15.3
2022-09-07T06:02:17.801Z,15.8
2022-09-07T06:12:17.675Z,16.4
2022-09-07T06:22:17.684Z,16.1
2022-09-07T06:32:47.137Z,16.3
2022-09-07T06:42:17.728Z,16.3
2022-09-07T06:52:17.722Z,17.5
2022-09-07T07:02:17.745Z,17.1
2022-09-07T07:22:47.054Z,17.8
2022-09-07T07:32:17.784Z,17.5
2022-09-07T07:42:17.826Z,19.1
2022-09-07T08:02:18.006Z,20.1
2022-09-07T08:12:17.887Z,20.5
2022-09-07T08:22:17.717Z,20.5
2022-09-07T08:32:18.457Z,22.3
2022-09-07T08:42:17.927Z,21.1
2022-09-07T09:02:38.435Z,21.8
2022-09-07T09:12:17.952Z,22.6
2022-09-07T09:22:17.979Z,25.2
2022-09-07T09:32:17.963Z,24.4
2022-09-07T09:52:38.126Z,24.2
2022-09-07T10:12:18.072Z,25.3
2022-09-07T10:22:18.050Z,24.6
2022-09-07T10:32:18.108Z,24.4
2022-09-07T10:42:18.085Z,22.8
2022-09-07T10:52:18.105Z,24.3
2022-09-07T11:02:17.954Z,24.5
2022-09-07T11:12:18.234Z,25.1
2022-09-07T11:22:18.117Z,23.9
2022-09-07T11:32:18.165Z,24
2022-09-07T11:42:48.056Z,27.9
2022-09-07T11:52:18.124Z,27.9
2022-09-07T12:02:18.300Z,25.4
2022-09-07T12:12:18.216Z,25.5
2022-09-07T12:22:18.237Z,27.4
2022-09-07T12:52:18.147Z,26.1
2022-09-07T13:02:18.331Z,26.3
2022-09-07T13:12:52.853Z,29
2022-09-07T13:22:18.139Z,28.9
2022-09-07T13:32:18.525Z,25.7
2022-09-07T13:42:18.329Z,25.7
2022-09-07T13:52:18.199Z,25.7
2022-09-07T14:02:18.413Z,25.6
2022-09-07T14:12:18.409Z,25.4
2022-09-07T14:22:18.406Z,24.7
2022-09-07T14:32:18.770Z,24.7
2022-09-07T14:42:18.245Z,24.6
2022-09-07T14:52:18.559Z,24.5
2022-09-07T15:02:18.363Z,24.6
2022-09-07T15:12:18.486Z,25.3
2022-09-07T15:22:18.508Z,28.3
2022-09-07T15:32:18.558Z,25.3
2022-09-07T15:52:18.535Z,26.3
2022-09-07T16:32:46.102Z,24.9
2022-09-07T16:42:18.606Z,24.9
2022-09-07T16:52:18.632Z,24.3
2022-09-07T17:02:18.634Z,23.3
2022-09-07T17:12:18.657Z,22.6
2022-09-07T17:22:18.645Z,22.3
2022-09-07T17:32:26.367Z,21.9
2022-09-07T17:42:18.502Z,21.9
2022-09-07T18:02:18.726Z,20.7
2022-09-07T18:12:18.719Z,20.6
2022-09-07T18:22:18.806Z,20.4
2022-09-07T18:42:18.798Z,20.5
2022-09-07T19:02:19.139Z,19.6
2022-09-07T19:12:18.792Z,19.3
2022-09-07T19:22:18.943Z,18.6
2022-09-07T19:32:18.654Z,18.6
2022-09-07T19:42:18.871Z,18.3
2022-09-07T19:52:18.684Z,18.3
2022-09-07T20:02:18.971Z,17.4
2022-09-07T20:12:18.895Z,17.3
2022-09-07T20:22:19.057Z,17.5
2022-09-07T20:32:18.923Z,17.2
2022-09-07T20:42:18.976Z,17.6
2022-09-07T20:52:18.965Z,17.3
2022-09-07T21:02:19.007Z,16.9
2022-09-07T21:12:18.977Z,16.7
2022-09-07T21:32:19.048Z,16.4
2022-09-07T21:42:19.052Z,16.8
2022-09-07T21:52:19.080Z,17.1
2022-09-07T22:02:19.115Z,17.1
2022-09-07T22:12:19.116Z,16.6
2022-09-07T22:22:19.092Z,16.1
2022-09-07T22:32:19.126Z,16.1
2022-09-07T22:42:19.123Z,16
2022-09-07T22:52:19.164Z,16.1
2022-09-07T23:02:19.173Z,15.9
2022-09-07T23:12:19.193Z,15.9
2022-09-07T23:22:19.205Z,15.8
2022-09-07T23:32:19.062Z,15.8
2022-09-07T23:42:19.232Z,16
2022-09-07T23:52:19.313Z,16.3
